Airfield :
LOGIN :

Register | Disclaimer

   EN    FR    IT 

 










Legend :    VFR   Marginal VFR   IFR   Intensive IFR   Very Intensive IFR
Visi :
Ceiling :
>= 8 km
>= 3000ft
5 to 8 km
1000 to 3000 ft
1500m to 5 km
500 to 1000 ft
800 to 1500m
200 to 500 ft
< 800m
< 200 ft
Symbols :   Thunderstorms  Fog  Heavy snow  Heavy precipitations  Wind > 20 kt
SIGMETs :     Misc.  Thunderstorms  Icing  Turbulence  Mountain Waves  Volcanic Ashes






- Airport Elevation : 1084 ft
- IATA code : EPL


LFSG - Épinal-Mirecourt

CURRENT METAR :
  • 190700Z AUTO 26003KT 9999 FEW031/// BKN060/// OVC072/// ///TCU 17/17 Q1014

EXPIRED METARs :
  • 190630Z AUTO 28003KT 250V320 9999 ///CB 16/16 Q1014
  • 190600Z AUTO VRB02KT 9000 -RA FEW032/// SCT058/// OVC072/// ///CB 16/16 Q1013
  • 190530Z AUTO 28005KT 9999 -RA FEW027/// BKN062/// OVC072/// ///CB 16/16 Q1013
  • 190500Z AUTO 23003KT 130V280 9999 ///CB 16/16 Q1013
  • 190430Z AUTO 17004KT 110V200 9999 -RA FEW044/// SCT072/// BKN090/// ///CB 16/16 Q1013
  • 190400Z AUTO 14006KT 9999 ///CB 16/16 Q1012
  • 190330Z AUTO VRB02KT 9999 ///CB 16/16 Q1012
  • 190300Z AUTO VRB01KT 9999 ///CB 16/16 Q1013

TAF N/A



MET'MAP, your aeronautical weather chart ! - Copyright ORBIFLY December 2007 - Disclaimer

ORBIFLY MET'MAP TEAM :

Programming & Development : Alexandra Zaïnal
Original concept : Baudouin d'Aumeries
Technical & hardware support : Manuel Goepfert
Assistance : Marc-Olivier Méhu




SOURCES & CREDITS :

   NOAA